Corinne, UT

2:23 PM MDT on September 02, 2014 (GMT -0600)
MesoWest Great Salt Lake Minerals UT US UUNET | Change Station
CLOSE
Current Station
Personal Weather Station
Location: Corinne, UT
Elevation: 4211 ft
Nearby Weather Stations

Elev 4211 ft 41.30 °N, 112.27 °W | Updated 53 minutes ago

Clear
Clear
76 °F
Feels Like 77 °F
N
4
Wind Variable Wind from SSW
Gusts 6.0 mph

Today
High -- | Low -- °F
--% Chance of Precip.
Yesterday
High -- | Low -- °F
Precip. -- in
6:57 AM 8:00 PM
First Quarter, 54% visible
Pressure 29.98 in
Visibility 10.0 miles
Clouds Clear
Heat Index 77 °F
Dew Point 42 °F
Humidity 29%
Rainfall -999.00 in
Snow Depth Not available.
UV 9 out of 12
Pollen 7.50 out of 12
Ozone Good
PM2.5 Good
Flu Activity Not available.
METAR KBMC 022015Z AUTO 20008KT 190V250 10SM CLR 28/00 A2998 RMK AO1 T02760004

More Conditions Fewer Conditions

Pressure 29.98 in
Visibility 10.0 miles
Clouds Clear
Heat Index 77 °F
Dew Point 42 °F
Humidity 29%
Rainfall -999.00 in
Snow Depth Not available.
UV 9 out of 12
Pollen 7.50 out of 12
Ozone Good
PM2.5 Good
Flu Activity Not available.
METAR KBMC 022015Z AUTO 20008KT 190V250 10SM CLR 28/00 A2998 RMK AO1 T02760004

More Conditions Fewer Conditions

10-Day Weather Forecast

Almanac

Astronomy

Sep. 02, 2014 Rise Set
Actual Time 6:57 AM MDT 8:00 PM MDT
Civil Twilight 6:28 AM MDT 8:29 PM MDT
Nautical Twilight 5:55 AM MDT 9:02 PM MDT
Astronomical Twilight 5:19 AM MDT 9:37 PM MDT
Moon 2:49 PM MDT 12:02 AM MDT
Length of Visible Light 14h 00m
Length of Day
13h 03m
Tomorrow will be 2m 39s shorter.
First Quarter, 54% of the Moon is Illuminated
Today
First Quarter
Sep 8
Full
Sep 15
Last Quarter
Sep 24
New
Oct 1
First Quarter

Today's Extremes

State Highs State Lows

Community

WunderPhotos

Upload Photos

1,749,757 photos uploaded!

WunderBlogs® & News

By Dr. Jeff Masters
Director of Meteorology, Weather Underground
By Kari Strenfel
Meteorologist, Weather Underground
By Christopher C. Burt
Weather Historian, Weather Underground
September 2, 2014
September 2, 2014
September 2, 2014

Nearby

Air Quality

  Air Quality AQ Index Pollutant
Yesterday Good
OZONE
Yesterday Good
PM10
Current Good
OZONE
Current Good
PM2.5
Tuesday Moderate
OZONE
Wednesday Moderate
OZONE
Thursday Moderate
OZONE

Snow Depth

Station Depth Elevation
Ben Lomond Trail 1 in 6000 ft
Parrish Creek 0 in 7740 ft
Louis Meadow 0 in 6700 ft
Temple Fork 0 in 7406 ft
Snowbird 0 in 9640 ft

Earthquake Activity

City Distance Mag. Time & Date
No recent earthquake activity has been reported nearby.
Minimum magnitude displayed is 2.5.

Coastal Water Temperatures

Place Temperature
No Stations Reporting

Nearby Weather Stations